createdAt,value
2023-04-25T00:01:25.333Z,11.61
2023-04-25T00:04:31.315Z,11.59
2023-04-25T00:07:34.341Z,11.58
2023-04-25T00:10:38.366Z,11.58
2023-04-25T00:13:42.819Z,11.59
2023-04-25T00:16:45.542Z,11.55
2023-04-25T00:19:48.617Z,11.57
2023-04-25T00:22:52.064Z,11.34
2023-04-25T00:25:56.128Z,11.27
2023-04-25T00:28:58.978Z,11.32
2023-04-25T00:32:01.822Z,11.21
2023-04-25T00:35:04.760Z,11.02
2023-04-25T00:38:07.461Z,11.00
2023-04-25T00:41:11.570Z,11.03
2023-04-25T00:44:14.481Z,11.03
2023-04-25T00:47:17.691Z,11.05
2023-04-25T00:50:20.433Z,11.12
2023-04-25T00:53:23.902Z,11.15
2023-04-25T00:56:28.063Z,10.98
2023-04-25T00:59:31.707Z,10.92
2023-04-25T01:02:38.462Z,10.94
2023-04-25T01:05:42.537Z,10.97
2023-04-25T01:08:45.357Z,10.84
2023-04-25T01:11:49.353Z,10.81
2023-04-25T01:14:55.116Z,10.74
2023-04-25T01:17:59.084Z,10.73
2023-04-25T01:21:09.626Z,10.75
2023-04-25T01:24:13.404Z,10.79
2023-04-25T01:27:16.526Z,10.74
2023-04-25T01:30:19.922Z,10.63
2023-04-25T01:33:23.493Z,10.67
2023-04-25T01:36:28.103Z,10.68
2023-04-25T01:39:34.161Z,10.67
2023-04-25T01:42:39.009Z,10.59
2023-04-25T01:45:42.260Z,10.64
2023-04-25T01:48:45.225Z,10.64
2023-04-25T01:51:49.249Z,10.59
2023-04-25T01:54:52.883Z,10.60
2023-04-25T01:57:55.893Z,10.48
2023-04-25T02:00:59.156Z,10.60
2023-04-25T02:04:02.812Z,10.63
2023-04-25T02:07:06.953Z,10.64
2023-04-25T02:10:10.561Z,10.66
2023-04-25T02:13:13.234Z,10.71
2023-04-25T02:16:15.940Z,10.75
2023-04-25T02:19:18.782Z,10.74
2023-04-25T02:22:22.769Z,10.73
2023-04-25T02:25:25.580Z,10.70
2023-04-25T02:28:31.347Z,10.70
2023-04-25T02:31:34.407Z,10.63
2023-04-25T02:34:37.599Z,10.59
2023-04-25T02:37:42.178Z,10.61
2023-04-25T02:40:45.077Z,10.64
2023-04-25T02:43:47.762Z,10.59
2023-04-25T02:46:50.522Z,10.62
2023-04-25T02:49:53.285Z,10.64
2023-04-25T02:52:57.508Z,10.66
2023-04-25T02:56:00.328Z,10.66
2023-04-25T02:59:03.515Z,10.68
2023-04-25T03:02:06.490Z,10.66
2023-04-25T03:05:09.934Z,10.68
2023-04-25T03:08:13.993Z,10.68
2023-04-25T03:11:16.688Z,10.70
2023-04-25T03:14:19.437Z,10.69
2023-04-25T03:17:25.238Z,10.68
2023-04-25T03:20:28.054Z,10.66
2023-04-25T03:23:32.081Z,10.62
2023-04-25T03:26:34.894Z,10.58
2023-04-25T03:29:37.808Z,10.57
2023-04-25T03:32:40.508Z,10.56
2023-04-25T03:35:43.647Z,10.54
2023-04-25T03:38:49.326Z,10.50
2023-04-25T03:41:52.089Z,10.45
2023-04-25T03:44:54.819Z,10.42
2023-04-25T03:47:57.592Z,10.42
2023-04-25T03:51:00.382Z,10.36
2023-04-25T03:54:05.100Z,10.24
2023-04-25T03:57:07.793Z,10.22
2023-04-25T04:00:11.446Z,10.22
2023-04-25T04:03:14.225Z,10.23
2023-04-25T04:06:17.077Z,10.25
2023-04-25T04:09:21.497Z,10.24
2023-04-25T04:12:24.193Z,10.24
2023-04-25T04:15:26.905Z,10.26
2023-04-25T04:18:30.519Z,10.25
2023-04-25T04:21:34.504Z,10.27
2023-04-25T04:24:38.568Z,10.17
2023-04-25T04:27:41.612Z,10.15
2023-04-25T04:30:46.974Z,10.14
2023-04-25T04:33:50.070Z,10.20
2023-04-25T04:36:52.926Z,10.16
2023-04-25T04:39:57.461Z,10.09
2023-04-25T04:43:00.137Z,10.06
2023-04-25T04:46:04.620Z,10.11
2023-04-25T04:49:07.315Z,10.21
2023-04-25T04:52:10.112Z,10.21
2023-04-25T04:55:14.309Z,10.20
2023-04-25T04:58:19.132Z,10.25
2023-04-25T05:01:22.587Z,10.33
2023-04-25T05:04:25.444Z,10.37
2023-04-25T05:07:28.374Z,10.41
2023-04-25T05:10:32.571Z,10.39
2023-04-25T05:13:35.289Z,10.39
2023-04-25T05:16:37.996Z,10.38
2023-04-25T05:19:41.586Z,10.38
2023-04-25T05:22:44.225Z,10.40
2023-04-25T05:25:48.309Z,10.31
2023-04-25T05:28:51.995Z,10.36
2023-04-25T05:31:55.709Z,10.40
2023-04-25T05:34:58.443Z,10.48
2023-04-25T05:38:01.168Z,10.59
2023-04-25T05:41:05.333Z,10.78
2023-04-25T05:44:08.000Z,10.93
2023-04-25T05:47:10.670Z,11.01
2023-04-25T05:50:13.447Z,11.08
2023-04-25T05:53:16.239Z,11.13
2023-04-25T05:56:20.277Z,11.19
2023-04-25T05:59:22.922Z,11.26
2023-04-25T06:02:26.238Z,11.27
2023-04-25T06:05:30.103Z,11.13
2023-04-25T06:08:33.746Z,11.12
2023-04-25T06:11:37.808Z,11.08
2023-04-25T06:14:40.780Z,11.17
2023-04-25T06:17:43.475Z,11.37
2023-04-25T06:20:46.185Z,11.25
2023-04-25T06:23:49.243Z,11.17
2023-04-25T06:26:54.198Z,11.10
2023-04-25T06:29:56.885Z,11.01
2023-04-25T06:32:59.920Z,10.92
2023-04-25T06:36:02.667Z,11.06
2023-04-25T06:39:05.990Z,11.07
2023-04-25T06:42:09.982Z,11.23
2023-04-25T06:45:12.802Z,11.46
2023-04-25T06:48:15.496Z,11.33
2023-04-25T06:51:18.928Z,11.35
2023-04-25T06:54:21.656Z,11.35
2023-04-25T06:57:25.755Z,11.62
2023-04-25T07:00:29.555Z,12.28
2023-04-25T07:03:32.808Z,12.49
2023-04-25T07:06:39.060Z,12.90
2023-04-25T07:09:41.830Z,12.97
2023-04-25T07:12:46.035Z,12.92
2023-04-25T07:15:51.917Z,12.52
2023-04-25T07:18:54.649Z,12.18
2023-04-25T07:21:57.339Z,12.17
2023-04-25T07:25:00.023Z,12.50
2023-04-25T07:28:04.217Z,12.90
2023-04-25T07:31:07.332Z,12.88
2023-04-25T07:34:10.059Z,12.77
2023-04-25T07:37:12.738Z,12.85
2023-04-25T07:40:16.686Z,12.99
2023-04-25T07:43:21.671Z,13.10
2023-04-25T07:46:24.447Z,13.27
2023-04-25T07:49:27.289Z,13.19
2023-04-25T07:52:29.999Z,13.19
2023-04-25T07:55:32.664Z,13.12
2023-04-25T07:58:36.691Z,13.19
2023-04-25T08:01:41.106Z,13.40
2023-04-25T08:04:43.866Z,13.75
2023-04-25T08:07:46.640Z,14.13
2023-04-25T08:10:49.602Z,14.33
2023-04-25T08:13:54.402Z,14.48
2023-04-25T08:17:00.241Z,14.59
2023-04-25T08:20:07.900Z,14.68
2023-04-25T08:23:13.634Z,14.82
2023-04-25T08:26:16.503Z,14.92
2023-04-25T08:29:20.786Z,14.89
2023-04-25T08:32:23.569Z,14.67
2023-04-25T08:35:26.619Z,14.40
2023-04-25T08:38:29.321Z,14.34
2023-04-25T08:41:32.773Z,14.33
2023-04-25T08:44:37.057Z,14.24
2023-04-25T08:47:40.967Z,14.00
2023-04-25T08:50:51.097Z,13.90
2023-04-25T08:53:57.812Z,13.94
2023-04-25T08:57:05.475Z,13.57
2023-04-25T09:00:11.675Z,13.64
2023-04-25T09:03:15.124Z,13.79
2023-04-25T09:06:19.925Z,13.88
2023-04-25T09:09:22.720Z,14.16
2023-04-25T09:12:25.476Z,14.37
2023-04-25T09:15:29.774Z,14.46
2023-04-25T09:18:34.120Z,14.65
2023-04-25T09:21:37.287Z,14.35
2023-04-25T09:24:43.560Z,14.45
2023-04-25T09:27:53.581Z,14.67
2023-04-25T09:30:59.352Z,14.73
2023-04-25T09:34:03.247Z,14.67
2023-04-25T09:37:06.309Z,14.43
2023-04-25T09:40:11.190Z,14.32
2023-04-25T09:43:21.560Z,14.31
2023-04-25T09:46:26.336Z,14.25
2023-04-25T09:49:29.520Z,14.31
2023-04-25T09:52:32.385Z,14.30
2023-04-25T09:55:36.913Z,14.33
2023-04-25T09:58:41.294Z,14.29
2023-04-25T10:01:45.615Z,14.36
2023-04-25T10:04:53.757Z,14.58
2023-04-25T10:07:57.480Z,14.41
2023-04-25T10:11:02.241Z,14.78
2023-04-25T10:14:05.043Z,15.19
2023-04-25T10:17:12.772Z,15.49
2023-04-25T10:20:17.661Z,15.73
2023-04-25T10:23:20.587Z,15.73
2023-04-25T10:26:23.300Z,15.63
2023-04-25T10:29:27.175Z,15.43
2023-04-25T10:32:32.698Z,15.18
2023-04-25T10:35:38.157Z,15.11
2023-04-25T10:38:41.634Z,15.22
2023-04-25T10:41:49.274Z,15.52
2023-04-25T10:45:04.380Z,15.58
2023-04-25T10:48:27.379Z,15.59
2023-04-25T10:51:43.415Z,15.00
2023-04-25T10:54:57.452Z,14.69
2023-04-25T10:58:00.405Z,14.47
2023-04-25T11:01:03.838Z,14.21
2023-04-25T11:04:08.578Z,14.09
2023-04-25T11:07:21.796Z,13.73
2023-04-25T11:10:27.655Z,13.54
2023-04-25T11:13:31.819Z,13.33
2023-04-25T11:16:34.579Z,13.38
2023-04-25T11:19:38.658Z,13.50
2023-04-25T11:22:42.871Z,13.60
2023-04-25T11:25:46.432Z,14.08
2023-04-25T11:28:51.392Z,14.37
2023-04-25T11:31:54.518Z,14.78
2023-04-25T11:34:59.723Z,14.95
2023-04-25T11:38:03.333Z,15.28
2023-04-25T11:41:06.355Z,15.60
2023-04-25T11:44:09.049Z,15.90
2023-04-25T11:47:11.750Z,15.93
2023-04-25T11:50:16.369Z,15.99
2023-04-25T11:53:19.942Z,15.91
2023-04-25T11:56:22.744Z,15.89
2023-04-25T11:59:28.805Z,15.84
2023-04-25T12:02:32.685Z,15.91
2023-04-25T12:05:38.933Z,15.89
2023-04-25T12:09:01.133Z,15.79
2023-04-25T12:12:04.978Z,15.79
2023-04-25T12:15:12.549Z,15.75
2023-04-25T12:18:15.399Z,15.68
2023-04-25T12:21:19.566Z,15.44
2023-04-25T12:24:26.458Z,15.21
2023-04-25T12:27:29.656Z,14.97
2023-04-25T12:30:32.973Z,14.57
2023-04-25T12:33:36.984Z,14.56
2023-04-25T12:36:41.409Z,14.48
2023-04-25T12:39:44.067Z,14.73
2023-04-25T12:42:47.024Z,15.08
2023-04-25T12:45:51.177Z,15.25
2023-04-25T12:48:53.967Z,15.45
2023-04-25T12:51:58.012Z,15.56
2023-04-25T12:55:00.871Z,15.67
2023-04-25T12:58:04.023Z,15.75
2023-04-25T13:01:07.003Z,15.80
2023-04-25T13:04:09.793Z,15.88
2023-04-25T13:07:13.906Z,15.70
2023-04-25T13:10:16.650Z,15.32
2023-04-25T13:13:19.403Z,14.77
2023-04-25T13:16:22.667Z,14.59
2023-04-25T13:19:26.656Z,14.75
2023-04-25T13:22:30.794Z,14.67
2023-04-25T13:25:33.555Z,14.95
2023-04-25T13:28:36.272Z,15.25
2023-04-25T13:31:38.955Z,15.57
2023-04-25T13:34:41.840Z,15.71
2023-04-25T13:37:46.292Z,15.78
2023-04-25T13:40:49.139Z,15.75
2023-04-25T13:43:52.202Z,15.71
2023-04-25T13:46:55.154Z,15.56
2023-04-25T13:49:57.971Z,15.41
2023-04-25T13:53:01.991Z,15.05
2023-04-25T13:56:05.696Z,15.19
2023-04-25T13:59:08.484Z,15.71
2023-04-25T14:02:11.450Z,16.07
2023-04-25T14:05:14.470Z,16.48
2023-04-25T14:08:18.550Z,16.86
2023-04-25T14:11:21.394Z,16.70
2023-04-25T14:14:24.775Z,16.50
2023-04-25T14:17:27.511Z,16.51
2023-04-25T14:20:30.801Z,15.96
2023-04-25T14:23:34.930Z,15.49
2023-04-25T14:26:37.698Z,15.21
2023-04-25T14:29:40.398Z,15.11
2023-04-25T14:32:43.303Z,14.96
2023-04-25T14:35:46.554Z,14.95
2023-04-25T14:38:50.631Z,14.91
2023-04-25T14:41:53.270Z,14.82
2023-04-25T14:44:56.095Z,14.98
2023-04-25T14:47:58.916Z,15.15
2023-04-25T14:51:02.319Z,15.30
2023-04-25T14:54:06.504Z,15.38
2023-04-25T14:57:09.417Z,15.53
2023-04-25T15:00:16.641Z,15.39
2023-04-25T15:03:19.907Z,15.37
2023-04-25T15:06:22.798Z,15.41
2023-04-25T15:09:26.925Z,15.49
2023-04-25T15:12:29.625Z,15.46
2023-04-25T15:15:32.479Z,15.44
2023-04-25T15:18:35.212Z,15.47
2023-04-25T15:21:38.894Z,15.60
2023-04-25T15:24:43.132Z,15.72
2023-04-25T15:27:46.264Z,15.72
2023-04-25T15:30:49.093Z,15.71
2023-04-25T15:33:52.009Z,15.70
2023-04-25T15:36:54.810Z,15.67
2023-04-25T15:40:08.015Z,15.41
2023-04-25T15:43:15.594Z,15.22
2023-04-25T15:46:18.523Z,15.16
2023-04-25T15:49:21.796Z,15.11
2023-04-25T15:52:24.543Z,14.92
2023-04-25T15:55:29.238Z,15.11
2023-04-25T15:58:31.872Z,15.44
2023-04-25T16:01:36.766Z,15.56
2023-04-25T16:04:39.593Z,15.51
2023-04-25T16:07:43.748Z,15.32
2023-04-25T16:10:48.380Z,15.04
2023-04-25T16:13:51.376Z,14.82
2023-04-25T16:16:54.570Z,14.45
2023-04-25T16:19:59.230Z,14.30
2023-04-25T16:23:02.345Z,14.07
2023-04-25T16:26:07.151Z,13.81
2023-04-25T16:29:10.030Z,13.82
2023-04-25T16:32:13.347Z,13.73
2023-04-25T16:35:16.172Z,13.71
2023-04-25T16:38:19.034Z,13.65
2023-04-25T16:41:23.322Z,13.59
2023-04-25T16:44:27.126Z,13.60
2023-04-25T16:47:30.066Z,13.61
2023-04-25T16:50:33.073Z,13.65
2023-04-25T16:53:36.037Z,13.64
2023-04-25T16:56:40.092Z,13.60
2023-04-25T16:59:42.908Z,13.60
2023-04-25T17:02:45.668Z,13.64
2023-04-25T17:05:52.108Z,13.72
2023-04-25T17:08:55.262Z,13.75
2023-04-25T17:11:59.483Z,13.80
2023-04-25T17:15:02.193Z,13.88
2023-04-25T17:18:05.273Z,13.91
2023-04-25T17:21:08.846Z,13.88
2023-04-25T17:24:12.245Z,13.85
2023-04-25T17:27:16.358Z,13.80
2023-04-25T17:30:19.202Z,13.70
2023-04-25T17:33:26.864Z,13.58
2023-04-25T17:36:29.760Z,13.50
2023-04-25T17:39:32.474Z,13.44
2023-04-25T17:42:36.615Z,13.27
2023-04-25T17:45:39.297Z,13.31
2023-04-25T17:48:42.079Z,13.24
2023-04-25T17:51:44.887Z,13.11
2023-04-25T17:54:49.211Z,13.07
2023-04-25T17:57:53.947Z,12.92
2023-04-25T18:00:57.009Z,12.95
2023-04-25T18:03:59.765Z,12.74
2023-04-25T18:07:02.490Z,12.50
2023-04-25T18:10:06.819Z,12.61
2023-04-25T18:13:10.856Z,12.52
2023-04-25T18:16:13.647Z,12.36
2023-04-25T18:19:21.246Z,12.28
2023-04-25T18:22:24.019Z,12.18
2023-04-25T18:25:26.888Z,12.09
2023-04-25T18:28:31.262Z,11.94
2023-04-25T18:31:35.617Z,11.93
2023-04-25T18:34:41.439Z,11.92
2023-04-25T18:37:44.362Z,11.90
2023-04-25T18:40:56.667Z,11.88
2023-04-25T18:44:06.750Z,11.87
2023-04-25T18:47:10.235Z,11.82
2023-04-25T18:50:13.138Z,11.78
2023-04-25T18:53:15.867Z,11.83
2023-04-25T18:56:21.027Z,11.70
2023-04-25T18:59:25.063Z,11.58
2023-04-25T19:02:27.954Z,11.47
2023-04-25T19:05:32.227Z,11.33
2023-04-25T19:08:34.947Z,11.20
2023-04-25T19:11:37.647Z,11.14
2023-04-25T19:14:41.821Z,10.95
2023-04-25T19:17:44.638Z,10.85
2023-04-25T19:20:47.426Z,10.73
2023-04-25T19:23:50.375Z,10.73
2023-04-25T19:26:53.185Z,10.59
2023-04-25T19:30:07.725Z,10.45
2023-04-25T19:33:10.527Z,10.36
2023-04-25T19:36:13.257Z,10.28
2023-04-25T19:39:15.956Z,10.18
2023-04-25T19:42:19.238Z,10.08
2023-04-25T19:45:23.442Z,9.99
2023-04-25T19:48:26.118Z,10.09
2023-04-25T19:51:29.545Z,9.85
2023-04-25T19:54:32.454Z,9.79
2023-04-25T19:57:37.871Z,9.73
2023-04-25T20:00:42.164Z,9.48
2023-04-25T20:03:45.392Z,9.67
2023-04-25T20:06:48.122Z,9.63
2023-04-25T20:09:51.111Z,9.72
2023-04-25T20:12:54.547Z,9.73
2023-04-25T20:16:01.269Z,9.72
2023-04-25T20:19:05.585Z,9.73
2023-04-25T20:22:08.252Z,9.75
2023-04-25T20:25:13.553Z,9.77
2023-04-25T20:28:16.534Z,9.78
2023-04-25T20:31:21.267Z,9.76
2023-04-25T20:34:25.340Z,9.76
2023-04-25T20:37:28.528Z,9.75
2023-04-25T20:40:31.619Z,9.69
2023-04-25T20:43:34.600Z,9.55
2023-04-25T20:46:38.826Z,9.43
2023-04-25T20:49:41.673Z,9.28
2023-04-25T20:52:44.556Z,9.17
2023-04-25T20:55:47.339Z,9.10
2023-04-25T20:58:50.324Z,9.04
2023-04-25T21:01:55.726Z,9.00
2023-04-25T21:04:59.258Z,8.96
2023-04-25T21:08:02.764Z,8.92
2023-04-25T21:11:05.486Z,8.81
2023-04-25T21:14:08.901Z,8.71
2023-04-25T21:17:13.053Z,8.60
2023-04-25T21:20:17.861Z,8.45
2023-04-25T21:23:20.555Z,8.39
2023-04-25T21:26:23.248Z,8.30
2023-04-25T21:29:26.070Z,8.19
2023-04-25T21:32:30.154Z,8.03
2023-04-25T21:35:32.916Z,7.98
2023-04-25T21:38:35.771Z,7.90
2023-04-25T21:41:38.622Z,7.88
2023-04-25T21:44:41.307Z,7.77
2023-04-25T21:47:46.568Z,7.70
2023-04-25T21:50:49.330Z,7.63
2023-04-25T21:53:52.166Z,7.59
2023-04-25T21:56:54.943Z,7.55
2023-04-25T21:59:57.613Z,7.45
2023-04-25T22:03:02.297Z,7.38
2023-04-25T22:06:05.090Z,7.36
2023-04-25T22:09:09.289Z,7.25
2023-04-25T22:12:14.693Z,7.22
2023-04-25T22:15:19.342Z,7.18
2023-04-25T22:18:23.422Z,7.11
2023-04-25T22:21:26.232Z,7.02
2023-04-25T22:24:30.032Z,6.96
2023-04-25T22:27:32.650Z,6.94
2023-04-25T22:30:37.185Z,6.86
2023-04-25T22:33:41.389Z,6.81
2023-04-25T22:36:44.184Z,6.76
2023-04-25T22:39:46.891Z,6.70
2023-04-25T22:42:49.608Z,6.60
2023-04-25T22:45:52.608Z,6.57
2023-04-25T22:48:56.667Z,6.55
2023-04-25T22:51:59.415Z,6.48
2023-04-25T22:55:02.828Z,6.42
2023-04-25T22:58:07.572Z,6.37
2023-04-25T23:01:11.329Z,6.34
2023-04-25T23:04:16.720Z,6.27
2023-04-25T23:07:19.878Z,6.24
2023-04-25T23:10:22.534Z,6.19
2023-04-25T23:13:25.814Z,6.16
2023-04-25T23:16:28.541Z,6.15
2023-04-25T23:19:32.612Z,6.06
2023-04-25T23:22:36.118Z,5.99
2023-04-25T23:25:40.100Z,5.96
2023-04-25T23:28:42.964Z,5.96
2023-04-25T23:31:45.698Z,5.89
2023-04-25T23:34:50.068Z,5.84
2023-04-25T23:37:52.874Z,5.76
2023-04-25T23:40:55.510Z,5.71
2023-04-25T23:43:58.320Z,5.64
2023-04-25T23:47:01.152Z,5.63
2023-04-25T23:50:06.151Z,5.54
2023-04-25T23:53:09.165Z,5.51
2023-04-25T23:56:11.954Z,5.45
2023-04-25T23:59:14.622Z,5.42
